createdAt,value
2022-11-16T00:01:49.434Z,5.53
2022-11-16T00:04:17.095Z,5.07
2022-11-16T00:06:45.994Z,5.13
2022-11-16T00:09:28.936Z,5.60
2022-11-16T00:11:59.472Z,4.20
2022-11-16T00:14:31.154Z,7.10
2022-11-16T00:16:59.720Z,5.93
2022-11-16T00:19:27.963Z,5.82
2022-11-16T00:21:55.859Z,4.65
2022-11-16T00:24:24.034Z,6.18
2022-11-16T00:26:54.065Z,5.85
2022-11-16T00:29:26.403Z,5.40
2022-11-16T00:31:55.677Z,7.95
2022-11-16T00:34:24.076Z,5.50
2022-11-16T00:36:52.594Z,6.13
2022-11-16T00:39:21.049Z,5.78
2022-11-16T00:41:49.285Z,5.10
2022-11-16T00:44:19.005Z,5.47
2022-11-16T00:46:47.089Z,6.65
2022-11-16T00:49:14.855Z,6.68
2022-11-16T00:51:42.486Z,6.10
2022-11-16T00:54:10.512Z,5.28
2022-11-16T00:56:39.321Z,7.03
2022-11-16T00:59:07.518Z,6.72
2022-11-16T01:01:35.386Z,6.93
2022-11-16T01:04:03.048Z,6.28
2022-11-16T01:06:30.559Z,6.68
2022-11-16T01:08:57.965Z,6.53
2022-11-16T01:11:43.751Z,7.10
2022-11-16T01:14:11.720Z,5.78
2022-11-16T01:16:39.167Z,8.60
2022-11-16T01:19:06.914Z,7.80
2022-11-16T01:21:34.839Z,6.32
2022-11-16T01:24:02.739Z,6.53
2022-11-16T01:26:30.338Z,7.15
2022-11-16T01:28:59.867Z,7.00
2022-11-16T01:31:31.324Z,5.22
2022-11-16T01:34:01.198Z,5.53
2022-11-16T01:36:30.093Z,6.28
2022-11-16T01:39:00.188Z,8.55
2022-11-16T01:44:07.912Z,8.73
2022-11-16T01:46:45.154Z,6.40
2022-11-16T01:49:19.823Z,6.38
2022-11-16T01:51:53.720Z,6.05
2022-11-16T01:56:57.521Z,5.72
2022-11-16T01:59:33.223Z,7.03
2022-11-16T02:02:01.953Z,6.72
2022-11-16T02:04:30.846Z,6.18
2022-11-16T02:07:03.164Z,6.68
2022-11-16T02:10:08.090Z,6.47
2022-11-16T02:12:50.902Z,5.50
2022-11-16T02:15:28.334Z,5.32
2022-11-16T02:18:17.726Z,6.43
2022-11-16T02:21:12.387Z,5.20
2022-11-16T02:23:46.123Z,9.23
2022-11-16T02:26:32.025Z,7.22
2022-11-16T02:29:11.256Z,4.55
2022-11-16T02:31:42.215Z,6.10
2022-11-16T02:34:12.337Z,8.15
2022-11-16T02:36:42.380Z,5.68
2022-11-16T02:39:14.974Z,5.43
2022-11-16T02:44:35.947Z,4.57
2022-11-16T02:47:07.807Z,7.35
2022-11-16T02:49:50.491Z,6.03
2022-11-16T02:52:19.136Z,9.50
2022-11-16T02:54:48.499Z,3.92
2022-11-16T02:57:37.305Z,5.20
2022-11-16T03:00:08.097Z,5.45
2022-11-16T03:02:38.444Z,4.10
2022-11-16T03:05:32.381Z,7.65
2022-11-16T03:08:14.802Z,5.28
2022-11-16T03:11:05.806Z,7.32
2022-11-16T03:13:36.106Z,4.32
2022-11-16T03:16:10.140Z,4.45
2022-11-16T03:18:40.906Z,5.90
2022-11-16T03:21:39.271Z,4.65
2022-11-16T03:24:07.875Z,7.30
2022-11-16T03:26:43.239Z,4.60
2022-11-16T03:29:39.606Z,6.97
2022-11-16T03:32:46.658Z,4.53
2022-11-16T03:35:23.052Z,5.70
2022-11-16T03:37:52.466Z,5.38
2022-11-16T03:40:22.717Z,6.43
2022-11-16T03:42:52.368Z,4.20
2022-11-16T03:45:20.757Z,4.88
2022-11-16T03:47:50.395Z,4.90
2022-11-16T03:50:17.942Z,5.40
2022-11-16T03:52:45.438Z,5.07
2022-11-16T03:55:14.567Z,5.85
2022-11-16T03:57:44.079Z,5.82
2022-11-16T04:00:13.052Z,7.72
2022-11-16T04:05:36.735Z,6.00
2022-11-16T04:08:23.422Z,8.25
2022-11-16T04:11:09.577Z,6.50
2022-11-16T04:13:57.212Z,8.10
2022-11-16T04:16:43.154Z,9.60
2022-11-16T04:19:28.897Z,5.30
2022-11-16T04:22:20.522Z,7.20
2022-11-16T04:24:53.073Z,5.07
2022-11-16T04:27:44.316Z,6.40
2022-11-16T04:30:12.653Z,7.00
2022-11-16T04:32:58.742Z,6.97
2022-11-16T04:35:44.972Z,8.50
2022-11-16T04:38:14.014Z,5.63
2022-11-16T04:40:41.664Z,4.97
2022-11-16T04:43:12.117Z,6.75
2022-11-16T04:46:01.122Z,8.82
2022-11-16T04:51:04.479Z,5.50
2022-11-16T04:53:33.274Z,6.75
2022-11-16T04:56:08.477Z,10.23
2022-11-16T04:58:36.211Z,6.85
2022-11-16T05:01:04.064Z,7.55
2022-11-16T05:03:31.786Z,6.22
2022-11-16T05:05:59.277Z,6.97
2022-11-16T05:08:27.159Z,6.05
2022-11-16T05:10:55.799Z,5.80
2022-11-16T05:13:23.458Z,5.68
2022-11-16T05:15:52.695Z,6.50
2022-11-16T05:18:20.210Z,5.30
2022-11-16T05:21:00.979Z,6.53
2022-11-16T05:23:51.331Z,5.43
2022-11-16T05:26:21.724Z,6.53
2022-11-16T05:28:49.975Z,5.32
2022-11-16T05:31:17.439Z,7.38
2022-11-16T05:33:45.369Z,6.90
2022-11-16T05:36:14.989Z,5.72
2022-11-16T05:38:42.850Z,6.72
2022-11-16T05:41:10.517Z,6.25
2022-11-16T05:43:38.402Z,6.20
2022-11-16T05:46:19.439Z,6.40
2022-11-16T05:48:46.869Z,5.82
2022-11-16T05:51:14.449Z,5.80
2022-11-16T05:53:42.042Z,7.05
2022-11-16T05:56:12.313Z,7.63
2022-11-16T05:58:40.502Z,7.35
2022-11-16T06:01:08.382Z,6.30
2022-11-16T06:03:37.017Z,5.20
2022-11-16T06:06:05.957Z,8.82
2022-11-16T06:08:33.887Z,8.57
2022-11-16T06:11:07.213Z,5.63
2022-11-16T06:13:37.033Z,6.63
2022-11-16T06:16:05.653Z,6.85
2022-11-16T06:18:39.501Z,7.57
2022-11-16T06:21:08.199Z,7.95
2022-11-16T06:23:36.098Z,6.82
2022-11-16T06:26:04.776Z,5.65
2022-11-16T06:28:34.254Z,6.40
2022-11-16T06:31:03.118Z,6.53
2022-11-16T06:36:05.977Z,7.82
2022-11-16T06:38:34.009Z,6.70
2022-11-16T06:41:03.360Z,6.60
2022-11-16T06:43:35.290Z,6.57
2022-11-16T06:46:06.089Z,7.97
2022-11-16T06:48:34.226Z,6.05
2022-11-16T06:51:04.677Z,6.43
2022-11-16T06:53:32.275Z,6.22
2022-11-16T06:56:03.748Z,8.63
2022-11-16T06:58:34.105Z,7.30
2022-11-16T07:01:12.262Z,5.60
2022-11-16T07:03:42.378Z,5.60
2022-11-16T07:06:11.971Z,7.55
2022-11-16T07:08:41.687Z,7.22
2022-11-16T07:11:11.537Z,6.10
2022-11-16T07:13:39.872Z,6.32
2022-11-16T07:16:11.534Z,6.70
2022-11-16T07:18:44.243Z,6.20
2022-11-16T07:21:16.210Z,3.90
2022-11-16T07:23:44.874Z,5.80
2022-11-16T07:26:17.478Z,5.82
2022-11-16T07:28:50.977Z,4.70
2022-11-16T07:31:21.777Z,4.82
2022-11-16T07:34:09.251Z,5.00
2022-11-16T07:36:49.114Z,4.82
2022-11-16T07:39:18.446Z,5.45
2022-11-16T07:41:47.294Z,6.13
2022-11-16T07:44:25.069Z,4.88
2022-11-16T07:47:05.770Z,4.47
2022-11-16T07:49:34.961Z,10.10
2022-11-16T07:52:17.334Z,5.85
2022-11-16T07:54:53.721Z,6.05
2022-11-16T07:57:25.739Z,6.60
2022-11-16T07:59:55.030Z,6.07
2022-11-16T08:02:22.841Z,6.78
2022-11-16T08:04:51.734Z,6.80
2022-11-16T08:07:24.232Z,7.57
2022-11-16T08:09:55.855Z,5.88
2022-11-16T08:12:24.670Z,7.35
2022-11-16T08:14:53.214Z,5.47
2022-11-16T08:17:21.262Z,5.13
2022-11-16T08:19:49.186Z,5.55
2022-11-16T08:22:17.260Z,7.32
2022-11-16T08:24:46.455Z,9.20
2022-11-16T08:27:17.269Z,9.95
2022-11-16T08:29:47.959Z,7.80
2022-11-16T08:32:16.217Z,4.93
2022-11-16T08:34:44.377Z,6.60
2022-11-16T08:37:11.820Z,5.13
2022-11-16T08:39:43.311Z,6.57
2022-11-16T08:42:10.799Z,6.60
2022-11-16T08:44:39.898Z,7.05
2022-11-16T08:47:11.984Z,7.47
2022-11-16T08:49:49.653Z,11.88
2022-11-16T08:52:19.490Z,9.37
2022-11-16T08:54:48.140Z,10.07
2022-11-16T08:57:16.818Z,7.97
2022-11-16T08:59:46.333Z,6.93
2022-11-16T09:02:14.653Z,7.68
2022-11-16T09:04:42.679Z,6.22
2022-11-16T09:07:10.757Z,16.17
2022-11-16T09:09:38.277Z,10.85
2022-11-16T09:12:05.878Z,8.77
2022-11-16T09:14:33.556Z,7.78
2022-11-16T09:17:01.282Z,7.15
2022-11-16T09:19:28.804Z,8.23
2022-11-16T09:21:56.473Z,7.93
2022-11-16T09:24:23.952Z,10.88
2022-11-16T09:26:51.499Z,9.40
2022-11-16T09:29:18.914Z,8.88
2022-11-16T09:31:46.638Z,9.00
2022-11-16T09:34:14.393Z,8.75
2022-11-16T09:36:41.840Z,10.45
2022-11-16T09:42:10.936Z,9.95
2022-11-16T09:45:04.739Z,8.70
2022-11-16T09:47:56.610Z,7.20
2022-11-16T09:50:44.564Z,6.43
2022-11-16T09:53:36.871Z,8.40
2022-11-16T09:56:10.698Z,7.97
2022-11-16T09:59:00.601Z,6.68
2022-11-16T10:01:44.511Z,7.18
2022-11-16T10:04:24.694Z,6.90
2022-11-16T10:07:03.442Z,7.72
2022-11-16T10:09:31.407Z,13.55
2022-11-16T10:12:17.452Z,15.93
2022-11-16T10:14:52.485Z,14.35
2022-11-16T10:17:37.991Z,10.55
2022-11-16T10:20:42.016Z,8.57
2022-11-16T10:23:30.886Z,6.90
2022-11-16T10:26:10.538Z,5.50
2022-11-16T10:29:02.663Z,6.85
2022-11-16T10:32:03.828Z,7.60
2022-11-16T10:34:56.933Z,5.85
2022-11-16T10:39:56.027Z,5.90
2022-11-16T10:42:36.286Z,6.75
2022-11-16T10:45:18.185Z,5.65
2022-11-16T10:48:04.466Z,9.00
2022-11-16T10:50:51.291Z,6.28
2022-11-16T10:53:39.116Z,6.55
2022-11-16T10:56:30.344Z,5.50
2022-11-16T10:59:00.594Z,5.15
2022-11-16T11:01:39.696Z,6.55
2022-11-16T11:04:13.033Z,5.43
2022-11-16T11:06:41.066Z,5.68
2022-11-16T11:09:30.709Z,5.93
2022-11-16T11:15:06.397Z,5.60
2022-11-16T11:17:36.089Z,7.38
2022-11-16T11:20:15.341Z,7.93
2022-11-16T11:22:58.206Z,6.47
2022-11-16T11:25:32.615Z,7.30
2022-11-16T11:28:21.141Z,8.35
2022-11-16T11:31:13.941Z,6.50
2022-11-16T11:33:51.659Z,7.07
2022-11-16T11:36:39.665Z,7.20
2022-11-16T11:39:13.117Z,8.18
2022-11-16T11:42:04.400Z,8.32
2022-11-16T11:44:52.278Z,8.02
2022-11-16T11:47:55.760Z,8.82
2022-11-16T11:50:37.585Z,6.45
2022-11-16T11:53:12.165Z,7.32
2022-11-16T11:55:40.011Z,5.28
2022-11-16T11:58:15.165Z,6.30
2022-11-16T12:01:04.469Z,6.25
2022-11-16T12:03:51.797Z,6.40
2022-11-16T12:06:43.712Z,6.32
2022-11-16T12:09:48.015Z,6.18
2022-11-16T12:12:35.656Z,5.88
2022-11-16T12:15:22.044Z,5.90
2022-11-16T12:18:13.934Z,7.82
2022-11-16T12:20:41.381Z,5.22
2022-11-16T12:23:17.861Z,5.05
2022-11-16T12:26:03.025Z,7.90
2022-11-16T12:29:04.165Z,7.05
2022-11-16T12:32:13.776Z,6.57
2022-11-16T12:34:41.209Z,7.50
2022-11-16T12:37:21.424Z,6.05
2022-11-16T12:40:04.217Z,6.88
2022-11-16T12:45:42.544Z,5.97
2022-11-16T12:48:24.773Z,6.30
2022-11-16T12:51:00.275Z,6.70
2022-11-16T12:54:12.256Z,7.97
2022-11-16T12:57:01.259Z,7.35
2022-11-16T12:59:53.305Z,8.77
2022-11-16T13:02:45.332Z,7.93
2022-11-16T13:05:25.785Z,10.10
2022-11-16T13:08:05.835Z,8.20
2022-11-16T13:10:43.149Z,6.18
2022-11-16T13:16:10.300Z,4.78
2022-11-16T13:18:42.455Z,6.05
2022-11-16T13:21:37.297Z,5.28
2022-11-16T13:24:20.928Z,5.03
2022-11-16T13:27:24.447Z,4.68
2022-11-16T13:30:15.749Z,3.63
2022-11-16T13:33:01.759Z,4.05
2022-11-16T13:35:29.827Z,5.47
2022-11-16T13:37:57.350Z,4.38
2022-11-16T13:40:33.684Z,4.70
2022-11-16T13:43:12.255Z,3.45
2022-11-16T13:45:54.580Z,3.38
2022-11-16T13:48:24.024Z,5.18
2022-11-16T13:51:00.962Z,4.00
2022-11-16T13:54:43.508Z,4.80
2022-11-16T13:56:28.718Z,4.00
2022-11-16T13:58:58.826Z,4.55
2022-11-16T14:01:46.288Z,3.28
2022-11-16T14:04:42.073Z,4.05
2022-11-16T14:07:32.382Z,4.05
2022-11-16T14:10:00.953Z,4.43
2022-11-16T14:13:05.589Z,2.95
2022-11-16T14:15:35.628Z,3.80
2022-11-16T14:18:09.492Z,4.55
2022-11-16T14:20:54.967Z,2.83
2022-11-16T14:23:28.088Z,3.80
2022-11-16T14:26:14.097Z,4.72
2022-11-16T14:28:50.785Z,3.95
2022-11-16T14:31:25.682Z,3.92
2022-11-16T14:33:55.600Z,6.15
2022-11-16T14:36:44.595Z,2.58
2022-11-16T14:39:17.865Z,4.22
2022-11-16T14:41:47.274Z,4.97
2022-11-16T14:44:20.065Z,3.30
2022-11-16T14:46:48.103Z,2.72
2022-11-16T14:49:18.241Z,3.58
2022-11-16T14:51:49.295Z,3.53
2022-11-16T14:54:19.615Z,5.45
2022-11-16T14:57:05.233Z,3.25
2022-11-16T14:59:33.045Z,5.32
2022-11-16T15:02:12.361Z,5.85
2022-11-16T15:04:40.000Z,7.15
2022-11-16T15:07:08.217Z,2.80
2022-11-16T15:09:40.249Z,4.18
2022-11-16T15:12:50.402Z,4.20
2022-11-16T15:15:24.636Z,5.68
2022-11-16T15:18:01.351Z,3.40
2022-11-16T15:20:31.840Z,3.15
2022-11-16T15:23:00.461Z,5.22
2022-11-16T15:25:45.981Z,3.88
2022-11-16T15:28:26.332Z,5.53
2022-11-16T15:31:00.072Z,5.32
2022-11-16T15:33:37.743Z,4.90
2022-11-16T15:36:38.828Z,3.42
2022-11-16T15:39:12.111Z,5.68
2022-11-16T15:41:40.266Z,3.33
2022-11-16T15:44:15.829Z,4.60
2022-11-16T15:46:48.269Z,3.45
2022-11-16T15:49:30.170Z,5.20
2022-11-16T15:52:01.231Z,5.00
2022-11-16T15:54:52.301Z,3.30
2022-11-16T15:57:22.349Z,2.55
2022-11-16T15:59:55.490Z,3.83
2022-11-16T16:02:27.722Z,3.22
2022-11-16T16:04:55.471Z,3.03
2022-11-16T16:07:40.201Z,4.82
2022-11-16T16:10:24.488Z,4.25
2022-11-16T16:12:54.007Z,4.65
2022-11-16T16:15:40.331Z,3.78
2022-11-16T16:18:36.946Z,2.75
2022-11-16T16:21:04.565Z,2.13
2022-11-16T16:23:32.519Z,3.08
2022-11-16T16:26:04.347Z,6.10
2022-11-16T16:28:31.786Z,2.67
2022-11-16T16:30:59.309Z,2.35
2022-11-16T16:33:28.894Z,5.53
2022-11-16T16:35:56.507Z,3.78
2022-11-16T16:38:23.947Z,4.80
2022-11-16T16:40:51.449Z,7.60
2022-11-16T16:43:18.939Z,10.60
2022-11-16T16:45:46.550Z,11.07
2022-11-16T16:48:13.974Z,11.75
2022-11-16T16:50:41.573Z,15.60
2022-11-16T16:53:12.999Z,17.60
2022-11-16T16:55:41.185Z,15.13
2022-11-16T16:58:14.938Z,16.75
2022-11-16T17:00:43.043Z,13.98
2022-11-16T17:03:10.883Z,17.38
2022-11-16T17:05:38.644Z,17.55
2022-11-16T17:08:06.341Z,15.32
2022-11-16T17:10:33.909Z,18.77
2022-11-16T17:13:03.357Z,19.13
2022-11-16T17:15:30.964Z,18.60
2022-11-16T17:17:59.444Z,22.55
2022-11-16T17:20:26.989Z,30.10
2022-11-16T17:22:54.544Z,60.05
2022-11-16T17:25:22.148Z,81.18
2022-11-16T17:27:49.667Z,56.75
2022-11-16T17:30:17.230Z,37.70
2022-11-16T17:32:44.686Z,22.70
2022-11-16T17:35:12.293Z,23.10
2022-11-16T17:37:39.764Z,21.75
2022-11-16T17:40:07.977Z,20.58
2022-11-16T17:42:36.248Z,53.10
2022-11-16T17:45:04.291Z,53.95
2022-11-16T17:47:33.449Z,53.55
2022-11-16T17:50:01.360Z,47.67
2022-11-16T17:52:28.923Z,38.17
2022-11-16T17:54:56.557Z,35.63
2022-11-16T17:57:24.141Z,26.80
2022-11-16T17:59:51.643Z,24.48
2022-11-16T18:02:19.243Z,22.90
2022-11-16T18:04:50.845Z,18.67
2022-11-16T18:07:19.320Z,22.83
2022-11-16T18:09:47.006Z,21.27
2022-11-16T18:12:14.508Z,22.85
2022-11-16T18:14:42.533Z,18.63
2022-11-16T18:17:10.151Z,20.73
2022-11-16T18:19:37.925Z,21.88
2022-11-16T18:22:05.473Z,21.42
2022-11-16T18:24:33.218Z,23.73
2022-11-16T18:27:00.756Z,24.17
2022-11-16T18:29:28.884Z,23.50
2022-11-16T18:31:56.469Z,23.25
2022-11-16T18:34:24.509Z,23.08
2022-11-16T18:36:52.245Z,23.77
2022-11-16T18:39:22.413Z,24.10
2022-11-16T18:41:55.027Z,21.38
2022-11-16T18:44:23.419Z,22.20
2022-11-16T18:46:50.922Z,21.83
2022-11-16T18:49:19.561Z,21.77
2022-11-16T18:51:47.716Z,26.23
2022-11-16T18:54:15.209Z,25.58
2022-11-16T18:56:44.092Z,26.52
2022-11-16T18:59:11.880Z,22.23
2022-11-16T19:01:39.574Z,21.83
2022-11-16T19:04:08.972Z,24.75
2022-11-16T19:06:36.716Z,24.75
2022-11-16T19:09:06.457Z,19.20
2022-11-16T19:11:35.822Z,23.58
2022-11-16T19:14:04.987Z,29.77
2022-11-16T19:16:32.619Z,27.00
2022-11-16T19:19:01.752Z,23.48
2022-11-16T19:21:29.536Z,22.30
2022-11-16T19:23:57.572Z,26.75
2022-11-16T19:26:27.235Z,24.77
2022-11-16T19:28:55.069Z,22.60
2022-11-16T19:31:28.976Z,25.17
2022-11-16T19:33:58.625Z,22.30
2022-11-16T19:36:28.523Z,22.38
2022-11-16T19:38:57.859Z,24.25
2022-11-16T19:41:27.037Z,20.35
2022-11-16T19:43:59.283Z,17.83
2022-11-16T19:46:28.620Z,21.65
2022-11-16T19:48:57.076Z,25.10
2022-11-16T19:51:30.386Z,25.90
2022-11-16T19:54:00.320Z,25.67
2022-11-16T19:56:28.184Z,25.40
2022-11-16T19:58:55.764Z,26.52
2022-11-16T20:01:29.420Z,25.88
2022-11-16T20:03:59.671Z,26.30
2022-11-16T20:06:29.970Z,23.98
2022-11-16T20:09:01.208Z,24.15
2022-11-16T20:11:33.929Z,21.17
2022-11-16T20:14:03.918Z,23.80
2022-11-16T20:16:38.652Z,22.15
2022-11-16T20:19:08.896Z,25.58
2022-11-16T20:21:42.075Z,25.58
2022-11-16T20:24:17.671Z,25.85
2022-11-16T20:26:51.961Z,25.85
2022-11-16T20:29:19.938Z,21.52
2022-11-16T20:31:47.750Z,22.88
2022-11-16T20:34:17.312Z,25.90
2022-11-16T20:36:47.016Z,22.67
2022-11-16T20:39:17.287Z,22.38
2022-11-16T20:41:45.521Z,22.75
2022-11-16T20:44:17.934Z,25.48
2022-11-16T20:46:45.870Z,25.27
2022-11-16T20:49:13.782Z,25.02
2022-11-16T20:51:41.397Z,23.52
2022-11-16T20:54:09.203Z,19.42
2022-11-16T20:56:36.681Z,22.52
2022-11-16T20:59:05.386Z,22.52
2022-11-16T21:01:32.998Z,23.73
2022-11-16T21:04:05.573Z,24.98
2022-11-16T21:06:33.299Z,27.48
2022-11-16T21:09:01.440Z,23.27
2022-11-16T21:11:31.181Z,21.65
2022-11-16T21:14:16.951Z,23.02
2022-11-16T21:16:44.879Z,20.73
2022-11-16T21:19:13.241Z,22.58
2022-11-16T21:21:41.113Z,21.45
2022-11-16T21:24:09.923Z,20.42
2022-11-16T21:26:37.904Z,22.60
2022-11-16T21:29:05.917Z,28.35
2022-11-16T21:31:35.629Z,23.08
2022-11-16T21:34:03.829Z,24.08
2022-11-16T21:36:32.395Z,26.38
2022-11-16T21:39:00.246Z,28.30
2022-11-16T21:41:27.829Z,23.55
2022-11-16T21:43:55.791Z,25.05
2022-11-16T21:46:25.468Z,23.52
2022-11-16T21:48:55.603Z,26.52
2022-11-16T21:51:25.390Z,28.63
2022-11-16T21:53:53.520Z,26.33
2022-11-16T21:56:25.554Z,25.15
2022-11-16T21:58:54.142Z,19.05
2022-11-16T22:01:23.052Z,25.30
2022-11-16T22:04:10.718Z,19.85
2022-11-16T22:06:56.573Z,25.10
2022-11-16T22:09:24.117Z,23.88
2022-11-16T22:11:51.663Z,22.00
2022-11-16T22:14:19.281Z,24.30
2022-11-16T22:16:46.712Z,22.73
2022-11-16T22:19:14.275Z,25.13
2022-11-16T22:21:41.771Z,22.80
2022-11-16T22:24:09.331Z,25.17
2022-11-16T22:26:38.346Z,21.35
2022-11-16T22:29:05.721Z,21.98
2022-11-16T22:31:33.404Z,22.48
2022-11-16T22:34:00.983Z,20.92
2022-11-16T22:36:28.546Z,26.52
2022-11-16T22:38:57.306Z,33.50
2022-11-16T22:41:24.770Z,26.55
2022-11-16T22:43:52.314Z,24.70
2022-11-16T22:46:19.800Z,25.90
2022-11-16T22:48:48.163Z,19.80
2022-11-16T22:51:18.571Z,20.98
2022-11-16T22:53:46.242Z,20.52
2022-11-16T22:56:14.192Z,16.15
2022-11-16T22:58:41.753Z,21.13
2022-11-16T23:01:10.081Z,19.65
2022-11-16T23:03:38.253Z,18.63
2022-11-16T23:06:07.187Z,16.30
2022-11-16T23:08:35.429Z,17.55
2022-11-16T23:11:26.945Z,14.02
2022-11-16T23:14:13.866Z,14.15
2022-11-16T23:16:42.395Z,15.18
2022-11-16T23:19:31.894Z,13.95
2022-11-16T23:22:18.131Z,19.58
2022-11-16T23:25:04.617Z,12.27
2022-11-16T23:27:53.364Z,14.05
2022-11-16T23:30:21.335Z,15.15
2022-11-16T23:32:48.802Z,14.50
2022-11-16T23:35:16.495Z,10.55
2022-11-16T23:37:55.008Z,12.80
2022-11-16T23:40:25.057Z,12.18
2022-11-16T23:43:12.549Z,12.50
2022-11-16T23:45:40.895Z,12.93
2022-11-16T23:48:10.122Z,12.88
2022-11-16T23:50:37.948Z,10.40
2022-11-16T23:53:06.948Z,11.32
2022-11-16T23:55:35.717Z,11.07
2022-11-16T23:58:03.384Z,10.95
